sensor_id;sensor_type;location;lat;lon;timestamp;P1;durP1;ratioP1;P2;durP2;ratioP2
9005;SDS011;62284;50.702;7.140;2022-09-16T00:02:03;3.45;;;2.10;;
9005;SDS011;62284;50.702;7.140;2022-09-16T00:04:30;4.55;;;2.10;;
9005;SDS011;62284;50.702;7.140;2022-09-16T00:06:58;3.80;;;1.77;;
9005;SDS011;62284;50.702;7.140;2022-09-16T00:09:25;2.58;;;1.48;;
9005;SDS011;62284;50.702;7.140;2022-09-16T00:11:52;3.17;;;1.67;;
9005;SDS011;62284;50.702;7.140;2022-09-16T00:14:19;4.97;;;2.47;;
9005;SDS011;62284;50.702;7.140;2022-09-16T00:16:46;3.33;;;1.75;;
9005;SDS011;62284;50.702;7.140;2022-09-16T00:19:13;2.50;;;1.35;;
9005;SDS011;62284;50.702;7.140;2022-09-16T00:21:40;6.75;;;2.20;;
9005;SDS011;62284;50.702;7.140;2022-09-16T00:24:10;1.75;;;1.48;;
9005;SDS011;62284;50.702;7.140;2022-09-16T00:26:39;4.32;;;2.10;;
9005;SDS011;62284;50.702;7.140;2022-09-16T00:29:06;2.90;;;1.55;;
9005;SDS011;62284;50.702;7.140;2022-09-16T00:31:33;2.88;;;1.80;;
9005;SDS011;62284;50.702;7.140;2022-09-16T00:34:00;3.08;;;2.15;;
9005;SDS011;62284;50.702;7.140;2022-09-16T00:36:27;6.75;;;2.10;;
9005;SDS011;62284;50.702;7.140;2022-09-16T00:38:55;4.75;;;1.85;;
9005;SDS011;62284;50.702;7.140;2022-09-16T00:41:25;2.30;;;1.65;;
9005;SDS011;62284;50.702;7.140;2022-09-16T00:43:55;4.88;;;2.30;;
9005;SDS011;62284;50.702;7.140;2022-09-16T00:46:25;4.07;;;1.63;;
9005;SDS011;62284;50.702;7.140;2022-09-16T00:48:59;5.00;;;2.20;;
9005;SDS011;62284;50.702;7.140;2022-09-16T00:51:29;3.25;;;1.60;;
9005;SDS011;62284;50.702;7.140;2022-09-16T00:53:56;4.07;;;1.85;;
9005;SDS011;62284;50.702;7.140;2022-09-16T00:56:29;2.55;;;1.58;;
9005;SDS011;62284;50.702;7.140;2022-09-16T00:59:03;2.22;;;1.65;;
9005;SDS011;62284;50.702;7.140;2022-09-16T01:01:33;5.35;;;1.85;;
9005;SDS011;62284;50.702;7.140;2022-09-16T01:04:01;3.25;;;2.03;;
9005;SDS011;62284;50.702;7.140;2022-09-16T01:06:31;3.55;;;1.40;;
9005;SDS011;62284;50.702;7.140;2022-09-16T01:09:02;2.53;;;1.85;;
9005;SDS011;62284;50.702;7.140;2022-09-16T01:11:31;2.65;;;1.92;;
9005;SDS011;62284;50.702;7.140;2022-09-16T01:13:58;2.70;;;1.58;;
9005;SDS011;62284;50.702;7.140;2022-09-16T01:16:40;2.20;;;1.90;;
9005;SDS011;62284;50.702;7.140;2022-09-16T01:19:18;2.38;;;1.50;;
9005;SDS011;62284;50.702;7.140;2022-09-16T01:22:04;1.20;;;1.10;;
9005;SDS011;62284;50.702;7.140;2022-09-16T01:24:51;5.43;;;1.70;;
9005;SDS011;62284;50.702;7.140;2022-09-16T01:27:31;2.63;;;1.63;;
9005;SDS011;62284;50.702;7.140;2022-09-16T01:30:47;2.15;;;1.40;;
9005;SDS011;62284;50.702;7.140;2022-09-16T01:33:32;2.97;;;1.73;;
9005;SDS011;62284;50.702;7.140;2022-09-16T01:36:20;2.78;;;1.73;;
9005;SDS011;62284;50.702;7.140;2022-09-16T01:39:03;4.05;;;2.13;;
9005;SDS011;62284;50.702;7.140;2022-09-16T01:41:38;3.20;;;2.08;;
9005;SDS011;62284;50.702;7.140;2022-09-16T01:44:13;3.50;;;2.00;;
9005;SDS011;62284;50.702;7.140;2022-09-16T01:46:49;2.92;;;1.83;;
9005;SDS011;62284;50.702;7.140;2022-09-16T01:49:24;3.33;;;1.88;;
9005;SDS011;62284;50.702;7.140;2022-09-16T01:52:01;3.17;;;1.63;;
9005;SDS011;62284;50.702;7.140;2022-09-16T01:54:37;3.75;;;1.67;;
9005;SDS011;62284;50.702;7.140;2022-09-16T01:57:09;3.35;;;1.92;;
9005;SDS011;62284;50.702;7.140;2022-09-16T01:59:41;2.00;;;1.73;;
9005;SDS011;62284;50.702;7.140;2022-09-16T02:02:16;3.40;;;1.90;;
9005;SDS011;62284;50.702;7.140;2022-09-16T02:04:45;3.53;;;1.75;;
9005;SDS011;62284;50.702;7.140;2022-09-16T02:07:16;4.22;;;1.85;;
9005;SDS011;62284;50.702;7.140;2022-09-16T02:09:47;2.03;;;1.83;;
9005;SDS011;62284;50.702;7.140;2022-09-16T02:12:17;3.17;;;1.92;;
9005;SDS011;62284;50.702;7.140;2022-09-16T02:14:47;2.33;;;1.50;;
9005;SDS011;62284;50.702;7.140;2022-09-16T02:17:19;3.30;;;2.20;;
9005;SDS011;62284;50.702;7.140;2022-09-16T02:19:50;3.65;;;1.83;;
9005;SDS011;62284;50.702;7.140;2022-09-16T02:22:22;3.88;;;1.85;;
9005;SDS011;62284;50.702;7.140;2022-09-16T02:24:54;2.50;;;1.73;;
9005;SDS011;62284;50.702;7.140;2022-09-16T02:27:23;3.78;;;1.80;;
9005;SDS011;62284;50.702;7.140;2022-09-16T02:29:53;2.80;;;1.65;;
9005;SDS011;62284;50.702;7.140;2022-09-16T02:32:25;2.88;;;1.77;;
9005;SDS011;62284;50.702;7.140;2022-09-16T02:34:55;3.60;;;1.90;;
9005;SDS011;62284;50.702;7.140;2022-09-16T02:37:25;2.85;;;2.03;;
9005;SDS011;62284;50.702;7.140;2022-09-16T02:39:57;2.33;;;1.80;;
9005;SDS011;62284;50.702;7.140;2022-09-16T02:42:29;3.88;;;2.20;;
9005;SDS011;62284;50.702;7.140;2022-09-16T02:44:57;1.92;;;1.67;;
9005;SDS011;62284;50.702;7.140;2022-09-16T02:47:27;3.08;;;2.30;;
9005;SDS011;62284;50.702;7.140;2022-09-16T02:49:58;2.88;;;2.55;;
9005;SDS011;62284;50.702;7.140;2022-09-16T02:52:32;3.30;;;2.08;;
9005;SDS011;62284;50.702;7.140;2022-09-16T02:55:05;3.67;;;2.03;;
9005;SDS011;62284;50.702;7.140;2022-09-16T02:57:39;3.53;;;2.10;;
9005;SDS011;62284;50.702;7.140;2022-09-16T03:00:06;2.33;;;2.13;;
9005;SDS011;62284;50.702;7.140;2022-09-16T03:02:35;3.22;;;2.20;;
9005;SDS011;62284;50.702;7.140;2022-09-16T03:05:03;3.58;;;2.45;;
9005;SDS011;62284;50.702;7.140;2022-09-16T03:07:31;4.00;;;2.45;;
9005;SDS011;62284;50.702;7.140;2022-09-16T03:09:58;3.42;;;2.78;;
9005;SDS011;62284;50.702;7.140;2022-09-16T03:15:26;5.07;;;2.53;;
9005;SDS011;62284;50.702;7.140;2022-09-16T03:18:24;3.92;;;2.50;;
9005;SDS011;62284;50.702;7.140;2022-09-16T03:21:04;4.22;;;2.13;;
9005;SDS011;62284;50.702;7.140;2022-09-16T03:23:40;2.78;;;2.35;;
9005;SDS011;62284;50.702;7.140;2022-09-16T03:26:15;4.63;;;2.60;;
9005;SDS011;62284;50.702;7.140;2022-09-16T03:28:51;2.60;;;2.40;;
9005;SDS011;62284;50.702;7.140;2022-09-16T03:31:29;4.32;;;2.40;;
9005;SDS011;62284;50.702;7.140;2022-09-16T03:34:02;6.38;;;3.00;;
9005;SDS011;62284;50.702;7.140;2022-09-16T03:36:32;3.40;;;2.15;;
9005;SDS011;62284;50.702;7.140;2022-09-16T03:39:02;4.60;;;2.47;;
9005;SDS011;62284;50.702;7.140;2022-09-16T03:41:30;4.35;;;2.78;;
9005;SDS011;62284;50.702;7.140;2022-09-16T03:43:59;4.55;;;2.53;;
9005;SDS011;62284;50.702;7.140;2022-09-16T03:46:26;6.30;;;2.75;;
9005;SDS011;62284;50.702;7.140;2022-09-16T03:48:53;3.58;;;2.33;;
9005;SDS011;62284;50.702;7.140;2022-09-16T03:51:21;4.22;;;2.83;;
9005;SDS011;62284;50.702;7.140;2022-09-16T03:53:48;3.70;;;2.53;;
9005;SDS011;62284;50.702;7.140;2022-09-16T03:56:15;6.38;;;2.40;;
9005;SDS011;62284;50.702;7.140;2022-09-16T03:58:42;5.07;;;2.28;;
9005;SDS011;62284;50.702;7.140;2022-09-16T04:01:09;2.88;;;1.95;;
9005;SDS011;62284;50.702;7.140;2022-09-16T04:03:36;4.53;;;2.17;;
9005;SDS011;62284;50.702;7.140;2022-09-16T04:06:03;3.13;;;2.10;;
9005;SDS011;62284;50.702;7.140;2022-09-16T04:08:31;4.93;;;2.42;;
9005;SDS011;62284;50.702;7.140;2022-09-16T04:10:59;2.80;;;2.20;;
9005;SDS011;62284;50.702;7.140;2022-09-16T04:13:29;3.92;;;2.38;;
9005;SDS011;62284;50.702;7.140;2022-09-16T04:15:57;4.88;;;2.72;;
9005;SDS011;62284;50.702;7.140;2022-09-16T04:18:24;4.05;;;2.50;;
9005;SDS011;62284;50.702;7.140;2022-09-16T04:20:54;3.53;;;2.40;;
9005;SDS011;62284;50.702;7.140;2022-09-16T04:23:22;3.35;;;2.33;;
9005;SDS011;62284;50.702;7.140;2022-09-16T04:25:53;4.82;;;2.50;;
9005;SDS011;62284;50.702;7.140;2022-09-16T04:28:21;3.47;;;2.33;;
9005;SDS011;62284;50.702;7.140;2022-09-16T04:30:48;3.25;;;2.45;;
9005;SDS011;62284;50.702;7.140;2022-09-16T04:33:15;3.67;;;2.30;;
9005;SDS011;62284;50.702;7.140;2022-09-16T04:35:41;2.55;;;2.30;;
9005;SDS011;62284;50.702;7.140;2022-09-16T04:38:08;2.83;;;2.00;;
9005;SDS011;62284;50.702;7.140;2022-09-16T04:40:35;4.38;;;2.13;;
9005;SDS011;62284;50.702;7.140;2022-09-16T04:43:05;4.97;;;2.28;;
9005;SDS011;62284;50.702;7.140;2022-09-16T04:45:31;6.22;;;2.47;;
9005;SDS011;62284;50.702;7.140;2022-09-16T04:47:58;3.05;;;2.47;;
9005;SDS011;62284;50.702;7.140;2022-09-16T04:50:25;3.42;;;2.13;;
9005;SDS011;62284;50.702;7.140;2022-09-16T04:52:52;3.60;;;2.35;;
9005;SDS011;62284;50.702;7.140;2022-09-16T04:55:19;4.75;;;2.45;;
9005;SDS011;62284;50.702;7.140;2022-09-16T04:57:48;3.70;;;1.95;;
9005;SDS011;62284;50.702;7.140;2022-09-16T05:00:17;3.33;;;1.80;;
9005;SDS011;62284;50.702;7.140;2022-09-16T05:02:44;3.78;;;2.30;;
9005;SDS011;62284;50.702;7.140;2022-09-16T05:05:13;3.25;;;2.10;;
9005;SDS011;62284;50.702;7.140;2022-09-16T05:07:41;3.65;;;2.55;;
9005;SDS011;62284;50.702;7.140;2022-09-16T05:10:08;4.38;;;2.20;;
9005;SDS011;62284;50.702;7.140;2022-09-16T05:12:35;3.42;;;2.13;;
9005;SDS011;62284;50.702;7.140;2022-09-16T05:15:02;2.33;;;1.90;;
9005;SDS011;62284;50.702;7.140;2022-09-16T05:17:30;3.85;;;2.58;;
9005;SDS011;62284;50.702;7.140;2022-09-16T05:19:57;4.30;;;2.67;;
9005;SDS011;62284;50.702;7.140;2022-09-16T05:22:24;4.15;;;2.25;;
9005;SDS011;62284;50.702;7.140;2022-09-16T05:24:51;5.00;;;2.45;;
9005;SDS011;62284;50.702;7.140;2022-09-16T05:27:18;3.97;;;2.17;;
9005;SDS011;62284;50.702;7.140;2022-09-16T05:29:46;5.82;;;2.15;;
9005;SDS011;62284;50.702;7.140;2022-09-16T05:32:13;5.40;;;2.40;;
9005;SDS011;62284;50.702;7.140;2022-09-16T05:34:41;3.53;;;1.95;;
9005;SDS011;62284;50.702;7.140;2022-09-16T05:37:08;3.15;;;2.25;;
9005;SDS011;62284;50.702;7.140;2022-09-16T05:39:34;5.70;;;2.70;;
9005;SDS011;62284;50.702;7.140;2022-09-16T05:42:01;4.22;;;2.50;;
9005;SDS011;62284;50.702;7.140;2022-09-16T05:44:28;3.83;;;2.10;;
9005;SDS011;62284;50.702;7.140;2022-09-16T05:46:55;4.78;;;2.08;;
9005;SDS011;62284;50.702;7.140;2022-09-16T05:49:22;5.88;;;3.08;;
9005;SDS011;62284;50.702;7.140;2022-09-16T05:51:51;4.32;;;2.10;;
9005;SDS011;62284;50.702;7.140;2022-09-16T05:54:18;3.72;;;2.17;;
9005;SDS011;62284;50.702;7.140;2022-09-16T05:56:48;3.75;;;2.40;;
9005;SDS011;62284;50.702;7.140;2022-09-16T05:59:15;5.22;;;2.45;;
9005;SDS011;62284;50.702;7.140;2022-09-16T06:01:43;5.30;;;2.03;;
9005;SDS011;62284;50.702;7.140;2022-09-16T06:04:11;4.10;;;2.20;;
9005;SDS011;62284;50.702;7.140;2022-09-16T06:06:39;4.97;;;2.47;;
9005;SDS011;62284;50.702;7.140;2022-09-16T06:09:09;3.22;;;2.40;;
9005;SDS011;62284;50.702;7.140;2022-09-16T06:11:39;6.05;;;2.00;;
9005;SDS011;62284;50.702;7.140;2022-09-16T06:14:06;3.13;;;2.15;;
9005;SDS011;62284;50.702;7.140;2022-09-16T06:16:34;1.83;;;1.65;;
9005;SDS011;62284;50.702;7.140;2022-09-16T06:19:03;3.97;;;2.03;;
9005;SDS011;62284;50.702;7.140;2022-09-16T06:21:34;4.05;;;2.10;;
9005;SDS011;62284;50.702;7.140;2022-09-16T06:24:02;3.22;;;1.90;;
9005;SDS011;62284;50.702;7.140;2022-09-16T06:26:34;2.53;;;2.08;;
9005;SDS011;62284;50.702;7.140;2022-09-16T06:29:02;4.28;;;2.35;;
9005;SDS011;62284;50.702;7.140;2022-09-16T06:31:29;3.37;;;2.00;;
9005;SDS011;62284;50.702;7.140;2022-09-16T06:33:56;2.80;;;1.55;;
9005;SDS011;62284;50.702;7.140;2022-09-16T06:36:24;4.45;;;2.30;;
9005;SDS011;62284;50.702;7.140;2022-09-16T06:38:53;4.93;;;2.03;;
9005;SDS011;62284;50.702;7.140;2022-09-16T06:41:20;3.58;;;2.33;;
9005;SDS011;62284;50.702;7.140;2022-09-16T06:43:49;3.85;;;1.67;;
9005;SDS011;62284;50.702;7.140;2022-09-16T06:46:17;3.33;;;2.10;;
9005;SDS011;62284;50.702;7.140;2022-09-16T06:48:46;3.10;;;2.17;;
9005;SDS011;62284;50.702;7.140;2022-09-16T06:51:16;3.90;;;2.03;;
9005;SDS011;62284;50.702;7.140;2022-09-16T06:53:44;3.97;;;2.08;;
9005;SDS011;62284;50.702;7.140;2022-09-16T06:56:12;2.33;;;1.77;;
9005;SDS011;62284;50.702;7.140;2022-09-16T06:58:41;3.38;;;1.60;;
9005;SDS011;62284;50.702;7.140;2022-09-16T07:01:10;4.00;;;1.88;;
9005;SDS011;62284;50.702;7.140;2022-09-16T07:03:39;3.83;;;2.30;;
9005;SDS011;62284;50.702;7.140;2022-09-16T07:06:07;5.88;;;2.08;;
9005;SDS011;62284;50.702;7.140;2022-09-16T07:08:36;3.55;;;2.17;;
9005;SDS011;62284;50.702;7.140;2022-09-16T07:11:05;6.03;;;2.40;;
9005;SDS011;62284;50.702;7.140;2022-09-16T07:13:33;3.70;;;1.85;;
9005;SDS011;62284;50.702;7.140;2022-09-16T07:16:00;3.10;;;1.98;;
9005;SDS011;62284;50.702;7.140;2022-09-16T07:18:29;6.45;;;2.13;;
9005;SDS011;62284;50.702;7.140;2022-09-16T07:21:00;3.25;;;2.00;;
9005;SDS011;62284;50.702;7.140;2022-09-16T07:23:28;3.42;;;1.65;;
9005;SDS011;62284;50.702;7.140;2022-09-16T07:25:59;2.67;;;2.03;;
9005;SDS011;62284;50.702;7.140;2022-09-16T07:28:27;3.28;;;2.00;;
9005;SDS011;62284;50.702;7.140;2022-09-16T07:30:55;3.92;;;2.10;;
9005;SDS011;62284;50.702;7.140;2022-09-16T07:33:25;3.50;;;2.00;;
9005;SDS011;62284;50.702;7.140;2022-09-16T07:35:53;4.97;;;2.22;;
9005;SDS011;62284;50.702;7.140;2022-09-16T07:38:23;3.53;;;1.83;;
9005;SDS011;62284;50.702;7.140;2022-09-16T07:40:50;2.83;;;1.95;;
9005;SDS011;62284;50.702;7.140;2022-09-16T07:43:17;2.90;;;2.25;;
9005;SDS011;62284;50.702;7.140;2022-09-16T07:45:44;3.55;;;2.17;;
9005;SDS011;62284;50.702;7.140;2022-09-16T07:48:10;2.65;;;1.80;;
9005;SDS011;62284;50.702;7.140;2022-09-16T07:50:37;3.72;;;2.33;;
9005;SDS011;62284;50.702;7.140;2022-09-16T07:53:05;5.63;;;1.92;;
9005;SDS011;62284;50.702;7.140;2022-09-16T07:55:33;4.00;;;2.08;;
9005;SDS011;62284;50.702;7.140;2022-09-16T07:58:00;2.95;;;1.75;;
9005;SDS011;62284;50.702;7.140;2022-09-16T08:00:27;2.47;;;1.60;;
9005;SDS011;62284;50.702;7.140;2022-09-16T08:02:55;2.58;;;1.70;;
9005;SDS011;62284;50.702;7.140;2022-09-16T08:05:23;4.32;;;2.05;;
9005;SDS011;62284;50.702;7.140;2022-09-16T08:07:50;3.28;;;2.03;;
9005;SDS011;62284;50.702;7.140;2022-09-16T08:10:18;2.75;;;1.70;;
9005;SDS011;62284;50.702;7.140;2022-09-16T08:12:45;4.22;;;1.98;;
9005;SDS011;62284;50.702;7.140;2022-09-16T08:15:12;4.13;;;1.70;;
9005;SDS011;62284;50.702;7.140;2022-09-16T08:17:39;4.50;;;1.83;;
9005;SDS011;62284;50.702;7.140;2022-09-16T08:20:06;2.25;;;1.60;;
9005;SDS011;62284;50.702;7.140;2022-09-16T08:22:34;2.67;;;1.85;;
9005;SDS011;62284;50.702;7.140;2022-09-16T08:25:01;2.03;;;1.52;;
9005;SDS011;62284;50.702;7.140;2022-09-16T08:27:29;2.45;;;1.65;;
9005;SDS011;62284;50.702;7.140;2022-09-16T08:29:59;3.13;;;1.50;;
9005;SDS011;62284;50.702;7.140;2022-09-16T08:32:26;1.10;;;1.00;;
9005;SDS011;62284;50.702;7.140;2022-09-16T08:34:53;2.58;;;1.30;;
9005;SDS011;62284;50.702;7.140;2022-09-16T08:37:20;2.53;;;1.50;;
9005;SDS011;62284;50.702;7.140;2022-09-16T08:39:47;4.30;;;2.40;;
9005;SDS011;62284;50.702;7.140;2022-09-16T08:42:22;1.33;;;0.95;;
9005;SDS011;62284;50.702;7.140;2022-09-16T08:44:59;2.90;;;1.45;;
9005;SDS011;62284;50.702;7.140;2022-09-16T08:47:45;4.43;;;1.65;;
9005;SDS011;62284;50.702;7.140;2022-09-16T08:50:28;2.90;;;1.25;;
9005;SDS011;62284;50.702;7.140;2022-09-16T08:52:59;1.67;;;1.33;;
9005;SDS011;62284;50.702;7.140;2022-09-16T08:55:31;4.00;;;1.55;;
9005;SDS011;62284;50.702;7.140;2022-09-16T08:58:01;2.05;;;1.23;;
9005;SDS011;62284;50.702;7.140;2022-09-16T09:00:31;2.17;;;1.38;;
9005;SDS011;62284;50.702;7.140;2022-09-16T09:03:01;3.53;;;1.50;;
9005;SDS011;62284;50.702;7.140;2022-09-16T09:05:35;1.48;;;1.13;;
9005;SDS011;62284;50.702;7.140;2022-09-16T09:08:17;2.80;;;1.67;;
9005;SDS011;62284;50.702;7.140;2022-09-16T09:10:53;1.45;;;1.25;;
9005;SDS011;62284;50.702;7.140;2022-09-16T09:13:30;1.90;;;1.25;;
9005;SDS011;62284;50.702;7.140;2022-09-16T09:16:08;1.67;;;1.00;;
9005;SDS011;62284;50.702;7.140;2022-09-16T09:18:44;2.30;;;1.10;;
9005;SDS011;62284;50.702;7.140;2022-09-16T09:21:23;2.30;;;1.30;;
9005;SDS011;62284;50.702;7.140;2022-09-16T09:24:06;2.13;;;1.50;;
9005;SDS011;62284;50.702;7.140;2022-09-16T09:26:48;2.45;;;1.60;;
9005;SDS011;62284;50.702;7.140;2022-09-16T09:29:20;0.80;;;0.80;;
9005;SDS011;62284;50.702;7.140;2022-09-16T09:32:09;2.78;;;0.93;;
9005;SDS011;62284;50.702;7.140;2022-09-16T09:34:50;3.17;;;1.23;;
9005;SDS011;62284;50.702;7.140;2022-09-16T09:37:32;4.22;;;1.63;;
9005;SDS011;62284;50.702;7.140;2022-09-16T09:40:17;2.85;;;1.33;;
9005;SDS011;62284;50.702;7.140;2022-09-16T09:42:49;1.73;;;0.98;;
9005;SDS011;62284;50.702;7.140;2022-09-16T09:45:19;1.58;;;1.13;;
9005;SDS011;62284;50.702;7.140;2022-09-16T09:47:53;2.25;;;1.35;;
9005;SDS011;62284;50.702;7.140;2022-09-16T09:50:23;1.27;;;1.17;;
9005;SDS011;62284;50.702;7.140;2022-09-16T09:53:13;2.58;;;1.00;;
9005;SDS011;62284;50.702;7.140;2022-09-16T09:55:46;2.85;;;1.15;;
9005;SDS011;62284;50.702;7.140;2022-09-16T09:58:17;3.10;;;1.27;;
9005;SDS011;62284;50.702;7.140;2022-09-16T10:00:48;1.90;;;1.10;;
9005;SDS011;62284;50.702;7.140;2022-09-16T10:03:18;4.72;;;1.15;;
9005;SDS011;62284;50.702;7.140;2022-09-16T10:05:45;1.40;;;0.82;;
9005;SDS011;62284;50.702;7.140;2022-09-16T10:08:16;1.67;;;1.02;;
9005;SDS011;62284;50.702;7.140;2022-09-16T10:10:54;2.28;;;1.02;;
9005;SDS011;62284;50.702;7.140;2022-09-16T10:13:23;1.00;;;0.80;;
9005;SDS011;62284;50.702;7.140;2022-09-16T10:15:52;3.10;;;1.35;;
9005;SDS011;62284;50.702;7.140;2022-09-16T10:18:23;3.05;;;1.20;;
9005;SDS011;62284;50.702;7.140;2022-09-16T10:20:57;2.13;;;1.02;;
9005;SDS011;62284;50.702;7.140;2022-09-16T10:23:27;1.38;;;1.13;;
9005;SDS011;62284;50.702;7.140;2022-09-16T10:26:04;1.30;;;1.10;;
9005;SDS011;62284;50.702;7.140;2022-09-16T10:28:32;1.77;;;0.90;;
9005;SDS011;62284;50.702;7.140;2022-09-16T10:30:59;2.88;;;1.20;;
9005;SDS011;62284;50.702;7.140;2022-09-16T10:33:29;1.42;;;0.90;;
9005;SDS011;62284;50.702;7.140;2022-09-16T10:35:57;1.33;;;1.00;;
9005;SDS011;62284;50.702;7.140;2022-09-16T10:38:33;2.45;;;1.08;;
9005;SDS011;62284;50.702;7.140;2022-09-16T10:41:03;1.42;;;1.00;;
9005;SDS011;62284;50.702;7.140;2022-09-16T10:43:34;1.95;;;1.13;;
9005;SDS011;62284;50.702;7.140;2022-09-16T10:46:03;1.38;;;1.00;;
9005;SDS011;62284;50.702;7.140;2022-09-16T10:48:32;1.85;;;1.08;;
9005;SDS011;62284;50.702;7.140;2022-09-16T10:51:01;1.55;;;1.23;;
9005;SDS011;62284;50.702;7.140;2022-09-16T10:53:30;1.65;;;1.00;;
9005;SDS011;62284;50.702;7.140;2022-09-16T10:55:59;1.27;;;1.17;;
9005;SDS011;62284;50.702;7.140;2022-09-16T10:58:27;1.25;;;1.10;;
9005;SDS011;62284;50.702;7.140;2022-09-16T11:00:57;1.92;;;1.20;;
9005;SDS011;62284;50.702;7.140;2022-09-16T11:03:53;1.80;;;1.42;;
9005;SDS011;62284;50.702;7.140;2022-09-16T11:06:34;3.00;;;1.10;;
9005;SDS011;62284;50.702;7.140;2022-09-16T11:09:11;1.45;;;1.10;;
9005;SDS011;62284;50.702;7.140;2022-09-16T11:11:47;2.70;;;1.65;;
9005;SDS011;62284;50.702;7.140;2022-09-16T11:14:23;3.90;;;1.38;;
9005;SDS011;62284;50.702;7.140;2022-09-16T11:17:02;3.42;;;1.63;;
9005;SDS011;62284;50.702;7.140;2022-09-16T11:19:42;1.80;;;0.75;;
9005;SDS011;62284;50.702;7.140;2022-09-16T11:22:22;1.13;;;1.02;;
9005;SDS011;62284;50.702;7.140;2022-09-16T11:25:05;1.10;;;1.00;;
9005;SDS011;62284;50.702;7.140;2022-09-16T11:27:51;3.22;;;1.38;;
9005;SDS011;62284;50.702;7.140;2022-09-16T11:30:23;1.00;;;0.77;;
9005;SDS011;62284;50.702;7.140;2022-09-16T11:32:54;3.53;;;0.75;;
9005;SDS011;62284;50.702;7.140;2022-09-16T11:35:57;3.67;;;1.30;;
9005;SDS011;62284;50.702;7.140;2022-09-16T11:38:43;2.05;;;1.30;;
9005;SDS011;62284;50.702;7.140;2022-09-16T11:41:23;1.40;;;0.98;;
9005;SDS011;62284;50.702;7.140;2022-09-16T11:44:09;1.75;;;1.17;;
9005;SDS011;62284;50.702;7.140;2022-09-16T11:46:56;2.40;;;1.20;;
9005;SDS011;62284;50.702;7.140;2022-09-16T11:49:40;1.35;;;1.00;;
9005;SDS011;62284;50.702;7.140;2022-09-16T11:52:23;0.75;;;0.75;;
9005;SDS011;62284;50.702;7.140;2022-09-16T11:55:12;2.75;;;0.95;;
9005;SDS011;62284;50.702;7.140;2022-09-16T11:57:57;2.38;;;1.10;;
9005;SDS011;62284;50.702;7.140;2022-09-16T12:00:27;2.00;;;1.13;;
9005;SDS011;62284;50.702;7.140;2022-09-16T12:02:57;2.35;;;1.25;;
9005;SDS011;62284;50.702;7.140;2022-09-16T12:05:29;0.85;;;0.85;;
9005;SDS011;62284;50.702;7.140;2022-09-16T12:08:02;1.13;;;0.93;;
9005;SDS011;62284;50.702;7.140;2022-09-16T12:10:36;1.73;;;0.90;;
9005;SDS011;62284;50.702;7.140;2022-09-16T12:13:10;1.33;;;1.02;;
9005;SDS011;62284;50.702;7.140;2022-09-16T12:15:41;2.10;;;1.15;;
9005;SDS011;62284;50.702;7.140;2022-09-16T12:18:14;1.48;;;0.65;;
9005;SDS011;62284;50.702;7.140;2022-09-16T12:20:45;1.42;;;0.98;;
9005;SDS011;62284;50.702;7.140;2022-09-16T12:23:17;1.85;;;1.08;;
9005;SDS011;62284;50.702;7.140;2022-09-16T12:25:51;2.42;;;0.90;;
9005;SDS011;62284;50.702;7.140;2022-09-16T12:28:30;3.08;;;0.85;;
9005;SDS011;62284;50.702;7.140;2022-09-16T12:31:03;1.17;;;0.80;;
9005;SDS011;62284;50.702;7.140;2022-09-16T12:33:37;2.10;;;1.13;;
9005;SDS011;62284;50.702;7.140;2022-09-16T12:36:10;5.15;;;1.25;;
9005;SDS011;62284;50.702;7.140;2022-09-16T12:38:40;2.70;;;0.82;;
9005;SDS011;62284;50.702;7.140;2022-09-16T12:41:20;1.70;;;1.00;;
9005;SDS011;62284;50.702;7.140;2022-09-16T12:46:54;1.10;;;0.70;;
9005;SDS011;62284;50.702;7.140;2022-09-16T12:49:39;2.17;;;1.00;;
9005;SDS011;62284;50.702;7.140;2022-09-16T12:52:46;2.67;;;0.93;;
9005;SDS011;62284;50.702;7.140;2022-09-16T12:55:40;2.00;;;1.20;;
9005;SDS011;62284;50.702;7.140;2022-09-16T12:58:18;2.60;;;1.25;;
9005;SDS011;62284;50.702;7.140;2022-09-16T13:01:11;0.60;;;0.52;;
9005;SDS011;62284;50.702;7.140;2022-09-16T13:03:44;2.42;;;1.40;;
9005;SDS011;62284;50.702;7.140;2022-09-16T13:06:17;3.55;;;1.30;;
9005;SDS011;62284;50.702;7.140;2022-09-16T13:08:48;2.13;;;1.08;;
9005;SDS011;62284;50.702;7.140;2022-09-16T13:11:18;1.98;;;1.27;;
9005;SDS011;62284;50.702;7.140;2022-09-16T13:13:47;1.13;;;0.95;;
9005;SDS011;62284;50.702;7.140;2022-09-16T13:16:25;0.95;;;0.70;;
9005;SDS011;62284;50.702;7.140;2022-09-16T13:19:04;1.05;;;0.98;;
9005;SDS011;62284;50.702;7.140;2022-09-16T13:21:39;0.98;;;0.75;;
9005;SDS011;62284;50.702;7.140;2022-09-16T13:24:23;1.52;;;0.93;;
9005;SDS011;62284;50.702;7.140;2022-09-16T13:26:56;1.63;;;0.80;;
9005;SDS011;62284;50.702;7.140;2022-09-16T13:29:38;1.27;;;0.85;;
9005;SDS011;62284;50.702;7.140;2022-09-16T13:34:59;1.25;;;0.80;;
9005;SDS011;62284;50.702;7.140;2022-09-16T13:37:27;1.10;;;0.95;;
9005;SDS011;62284;50.702;7.140;2022-09-16T13:39:54;1.20;;;0.70;;
9005;SDS011;62284;50.702;7.140;2022-09-16T13:42:23;0.77;;;0.70;;
9005;SDS011;62284;50.702;7.140;2022-09-16T13:44:50;0.77;;;0.60;;
9005;SDS011;62284;50.702;7.140;2022-09-16T13:47:27;0.88;;;0.55;;
9005;SDS011;62284;50.702;7.140;2022-09-16T13:49:59;0.43;;;0.43;;
9005;SDS011;62284;50.702;7.140;2022-09-16T13:52:33;1.45;;;0.55;;
9005;SDS011;62284;50.702;7.140;2022-09-16T13:55:01;0.75;;;0.45;;
9005;SDS011;62284;50.702;7.140;2022-09-16T13:57:34;1.42;;;0.57;;
9005;SDS011;62284;50.702;7.140;2022-09-16T14:00:22;0.68;;;0.60;;
9005;SDS011;62284;50.702;7.140;2022-09-16T14:05:59;0.55;;;0.52;;
9005;SDS011;62284;50.702;7.140;2022-09-16T14:08:39;0.93;;;0.73;;
9005;SDS011;62284;50.702;7.140;2022-09-16T14:11:13;0.80;;;0.73;;
9005;SDS011;62284;50.702;7.140;2022-09-16T14:13:48;0.55;;;0.50;;
9005;SDS011;62284;50.702;7.140;2022-09-16T14:16:17;0.80;;;0.80;;
9005;SDS011;62284;50.702;7.140;2022-09-16T14:18:51;1.13;;;1.13;;
9005;SDS011;62284;50.702;7.140;2022-09-16T14:21:22;0.95;;;0.95;;
9005;SDS011;62284;50.702;7.140;2022-09-16T14:23:49;0.55;;;0.55;;
9005;SDS011;62284;50.702;7.140;2022-09-16T14:26:17;0.70;;;0.70;;
9005;SDS011;62284;50.702;7.140;2022-09-16T14:28:45;1.48;;;1.38;;
9005;SDS011;62284;50.702;7.140;2022-09-16T14:31:15;1.02;;;1.02;;
9005;SDS011;62284;50.702;7.140;2022-09-16T14:33:45;1.85;;;1.75;;
9005;SDS011;62284;50.702;7.140;2022-09-16T14:36:17;1.13;;;1.00;;
9005;SDS011;62284;50.702;7.140;2022-09-16T14:38:49;0.98;;;0.98;;
9005;SDS011;62284;50.702;7.140;2022-09-16T14:41:22;0.88;;;0.88;;
9005;SDS011;62284;50.702;7.140;2022-09-16T14:43:51;1.15;;;1.00;;
9005;SDS011;62284;50.702;7.140;2022-09-16T14:46:21;0.82;;;0.70;;
9005;SDS011;62284;50.702;7.140;2022-09-16T14:48:48;1.70;;;1.15;;
9005;SDS011;62284;50.702;7.140;2022-09-16T14:51:18;1.90;;;1.20;;
9005;SDS011;62284;50.702;7.140;2022-09-16T14:53:54;1.00;;;1.00;;
9005;SDS011;62284;50.702;7.140;2022-09-16T14:56:23;0.90;;;0.90;;
9005;SDS011;62284;50.702;7.140;2022-09-16T14:58:50;0.82;;;0.82;;
9005;SDS011;62284;50.702;7.140;2022-09-16T15:01:19;1.42;;;0.88;;
9005;SDS011;62284;50.702;7.140;2022-09-16T15:03:51;0.80;;;0.80;;
9005;SDS011;62284;50.702;7.140;2022-09-16T15:06:23;0.65;;;0.65;;
9005;SDS011;62284;50.702;7.140;2022-09-16T15:08:54;1.20;;;0.85;;
9005;SDS011;62284;50.702;7.140;2022-09-16T15:11:25;1.52;;;1.00;;
9005;SDS011;62284;50.702;7.140;2022-09-16T15:13:55;1.67;;;0.80;;
9005;SDS011;62284;50.702;7.140;2022-09-16T15:16:24;1.00;;;0.80;;
9005;SDS011;62284;50.702;7.140;2022-09-16T15:18:54;0.80;;;0.80;;
9005;SDS011;62284;50.702;7.140;2022-09-16T15:21:23;0.90;;;0.90;;
9005;SDS011;62284;50.702;7.140;2022-09-16T15:23:52;2.03;;;0.95;;
9005;SDS011;62284;50.702;7.140;2022-09-16T15:26:22;0.95;;;0.40;;
9005;SDS011;62284;50.702;7.140;2022-09-16T15:28:52;0.98;;;0.95;;
9005;SDS011;62284;50.702;7.140;2022-09-16T15:31:29;1.17;;;0.65;;
9005;SDS011;62284;50.702;7.140;2022-09-16T15:33:58;2.05;;;1.23;;
9005;SDS011;62284;50.702;7.140;2022-09-16T15:36:33;1.80;;;1.35;;
9005;SDS011;62284;50.702;7.140;2022-09-16T15:39:03;1.38;;;0.75;;
9005;SDS011;62284;50.702;7.140;2022-09-16T15:41:30;1.15;;;0.77;;